sensor_id;sensor_type;location;lat;lon;timestamp;temperature;humidity
546;DHT22;259;53.304;9.816;2023-07-09T00:02:26;24.90;80.20
546;DHT22;259;53.304;9.816;2023-07-09T00:04:52;24.90;80.10
546;DHT22;259;53.304;9.816;2023-07-09T00:07:28;24.90;80.10
546;DHT22;259;53.304;9.816;2023-07-09T00:09:56;24.90;80.10
546;DHT22;259;53.304;9.816;2023-07-09T00:12:22;24.90;80.20
546;DHT22;259;53.304;9.816;2023-07-09T00:14:48;24.90;80.00
546;DHT22;259;53.304;9.816;2023-07-09T00:17:31;24.80;80.00
546;DHT22;259;53.304;9.816;2023-07-09T00:19:59;24.80;79.90
546;DHT22;259;53.304;9.816;2023-07-09T00:22:25;24.80;79.90
546;DHT22;259;53.304;9.816;2023-07-09T00:24:52;24.80;79.90
546;DHT22;259;53.304;9.816;2023-07-09T00:27:23;24.80;79.90
546;DHT22;259;53.304;9.816;2023-07-09T00:29:51;24.80;79.90
546;DHT22;259;53.304;9.816;2023-07-09T00:32:20;24.80;79.90
546;DHT22;259;53.304;9.816;2023-07-09T00:34:50;24.70;79.70
546;DHT22;259;53.304;9.816;2023-07-09T00:37:19;24.70;79.80
546;DHT22;259;53.304;9.816;2023-07-09T00:39:47;24.70;79.70
546;DHT22;259;53.304;9.816;2023-07-09T00:42:15;24.70;79.70
546;DHT22;259;53.304;9.816;2023-07-09T00:44:50;24.70;79.70
546;DHT22;259;53.304;9.816;2023-07-09T00:50:11;24.70;79.90
546;DHT22;259;53.304;9.816;2023-07-09T00:52:52;24.60;79.80
546;DHT22;259;53.304;9.816;2023-07-09T00:55:23;24.60;79.90
546;DHT22;259;53.304;9.816;2023-07-09T00:57:53;24.60;79.70
546;DHT22;259;53.304;9.816;2023-07-09T01:00:34;24.60;79.80
546;DHT22;259;53.304;9.816;2023-07-09T01:03:08;24.60;79.90
546;DHT22;259;53.304;9.816;2023-07-09T01:05:37;24.60;79.80
546;DHT22;259;53.304;9.816;2023-07-09T01:08:05;24.60;79.90
546;DHT22;259;53.304;9.816;2023-07-09T01:10:31;24.60;79.70
546;DHT22;259;53.304;9.816;2023-07-09T01:12:57;24.50;79.70
546;DHT22;259;53.304;9.816;2023-07-09T01:15:22;24.50;79.50
546;DHT22;259;53.304;9.816;2023-07-09T01:17:48;24.50;79.50
546;DHT22;259;53.304;9.816;2023-07-09T01:20:19;24.50;79.50
546;DHT22;259;53.304;9.816;2023-07-09T01:22:48;24.40;79.40
546;DHT22;259;53.304;9.816;2023-07-09T01:25:15;24.50;79.50
546;DHT22;259;53.304;9.816;2023-07-09T01:27:44;24.40;79.30
546;DHT22;259;53.304;9.816;2023-07-09T01:30:16;24.40;79.40
546;DHT22;259;53.304;9.816;2023-07-09T01:32:49;24.40;79.50
546;DHT22;259;53.304;9.816;2023-07-09T01:35:17;24.40;79.40
546;DHT22;259;53.304;9.816;2023-07-09T01:37:45;24.40;79.40
546;DHT22;259;53.304;9.816;2023-07-09T01:40:13;24.40;79.40
546;DHT22;259;53.304;9.816;2023-07-09T01:42:41;24.40;79.40
546;DHT22;259;53.304;9.816;2023-07-09T01:45:08;24.30;79.30
546;DHT22;259;53.304;9.816;2023-07-09T01:47:36;24.30;79.30
546;DHT22;259;53.304;9.816;2023-07-09T01:50:04;24.30;79.30
546;DHT22;259;53.304;9.816;2023-07-09T01:52:31;24.30;79.30
546;DHT22;259;53.304;9.816;2023-07-09T01:54:59;24.30;79.40
546;DHT22;259;53.304;9.816;2023-07-09T01:57:26;24.20;79.30
546;DHT22;259;53.304;9.816;2023-07-09T02:00:04;24.20;79.40
546;DHT22;259;53.304;9.816;2023-07-09T02:02:36;24.20;79.40
546;DHT22;259;53.304;9.816;2023-07-09T02:05:04;24.20;79.40
546;DHT22;259;53.304;9.816;2023-07-09T02:07:31;24.20;79.30
546;DHT22;259;53.304;9.816;2023-07-09T02:09:58;24.20;79.40
546;DHT22;259;53.304;9.816;2023-07-09T02:12:24;24.20;79.20
546;DHT22;259;53.304;9.816;2023-07-09T02:14:50;24.20;79.20
546;DHT22;259;53.304;9.816;2023-07-09T02:17:16;24.20;79.20
546;DHT22;259;53.304;9.816;2023-07-09T02:19:42;24.10;79.00
546;DHT22;259;53.304;9.816;2023-07-09T02:22:08;24.10;79.10
546;DHT22;259;53.304;9.816;2023-07-09T02:24:34;24.10;79.10
546;DHT22;259;53.304;9.816;2023-07-09T02:27:01;24.10;79.10
546;DHT22;259;53.304;9.816;2023-07-09T02:29:29;24.10;79.10
546;DHT22;259;53.304;9.816;2023-07-09T02:31:57;24.10;79.00
546;DHT22;259;53.304;9.816;2023-07-09T02:34:27;24.10;79.10
546;DHT22;259;53.304;9.816;2023-07-09T02:36:55;24.00;79.00
546;DHT22;259;53.304;9.816;2023-07-09T02:39:22;24.00;79.00
546;DHT22;259;53.304;9.816;2023-07-09T02:41:48;24.00;79.00
546;DHT22;259;53.304;9.816;2023-07-09T02:44:16;24.00;79.00
546;DHT22;259;53.304;9.816;2023-07-09T02:46:42;24.00;79.10
546;DHT22;259;53.304;9.816;2023-07-09T02:49:10;23.90;78.90
546;DHT22;259;53.304;9.816;2023-07-09T02:51:37;23.90;78.90
546;DHT22;259;53.304;9.816;2023-07-09T02:54:04;23.90;78.90
546;DHT22;259;53.304;9.816;2023-07-09T02:56:30;23.90;79.00
546;DHT22;259;53.304;9.816;2023-07-09T02:58:56;23.90;79.10
546;DHT22;259;53.304;9.816;2023-07-09T03:01:22;23.90;79.00
546;DHT22;259;53.304;9.816;2023-07-09T03:03:54;23.90;79.20
546;DHT22;259;53.304;9.816;2023-07-09T03:06:20;23.90;79.20
546;DHT22;259;53.304;9.816;2023-07-09T03:08:48;23.80;79.00
546;DHT22;259;53.304;9.816;2023-07-09T03:11:15;23.80;79.10
546;DHT22;259;53.304;9.816;2023-07-09T03:13:42;23.80;79.10
546;DHT22;259;53.304;9.816;2023-07-09T03:16:08;23.80;78.90
546;DHT22;259;53.304;9.816;2023-07-09T03:18:34;23.80;78.90
546;DHT22;259;53.304;9.816;2023-07-09T03:21:00;23.80;78.90
546;DHT22;259;53.304;9.816;2023-07-09T03:23:26;23.80;78.80
546;DHT22;259;53.304;9.816;2023-07-09T03:25:52;23.70;78.70
546;DHT22;259;53.304;9.816;2023-07-09T03:28:18;23.70;78.70
546;DHT22;259;53.304;9.816;2023-07-09T03:30:46;23.70;78.70
546;DHT22;259;53.304;9.816;2023-07-09T03:33:14;23.70;78.70
546;DHT22;259;53.304;9.816;2023-07-09T03:35:41;23.70;78.70
546;DHT22;259;53.304;9.816;2023-07-09T03:38:08;23.70;78.70
546;DHT22;259;53.304;9.816;2023-07-09T03:40:35;23.70;78.80
546;DHT22;259;53.304;9.816;2023-07-09T03:43:03;23.60;78.70
546;DHT22;259;53.304;9.816;2023-07-09T03:45:30;23.60;78.70
546;DHT22;259;53.304;9.816;2023-07-09T03:47:55;23.60;79.70
546;DHT22;259;53.304;9.816;2023-07-09T03:50:22;23.60;78.80
546;DHT22;259;53.304;9.816;2023-07-09T03:52:48;23.60;78.80
546;DHT22;259;53.304;9.816;2023-07-09T03:55:13;23.60;78.70
546;DHT22;259;53.304;9.816;2023-07-09T03:57:39;23.50;78.70
546;DHT22;259;53.304;9.816;2023-07-09T04:00:06;23.50;78.70
546;DHT22;259;53.304;9.816;2023-07-09T04:02:36;23.50;78.80
546;DHT22;259;53.304;9.816;2023-07-09T04:05:03;23.50;78.90
546;DHT22;259;53.304;9.816;2023-07-09T04:07:29;23.50;78.90
546;DHT22;259;53.304;9.816;2023-07-09T04:09:54;23.40;78.80
546;DHT22;259;53.304;9.816;2023-07-09T04:12:20;23.40;78.80
546;DHT22;259;53.304;9.816;2023-07-09T04:14:46;23.40;78.70
546;DHT22;259;53.304;9.816;2023-07-09T04:17:11;23.40;78.80
546;DHT22;259;53.304;9.816;2023-07-09T04:19:37;23.40;78.70
546;DHT22;259;53.304;9.816;2023-07-09T04:22:04;23.40;78.70
546;DHT22;259;53.304;9.816;2023-07-09T04:24:32;23.40;78.70
546;DHT22;259;53.304;9.816;2023-07-09T04:26:59;23.40;78.70
546;DHT22;259;53.304;9.816;2023-07-09T04:29:29;23.40;78.70
546;DHT22;259;53.304;9.816;2023-07-09T04:31:55;23.30;78.70
546;DHT22;259;53.304;9.816;2023-07-09T04:34:21;23.40;78.90
546;DHT22;259;53.304;9.816;2023-07-09T04:36:47;23.40;78.80
546;DHT22;259;53.304;9.816;2023-07-09T04:39:12;23.30;78.80
546;DHT22;259;53.304;9.816;2023-07-09T04:41:39;23.30;78.80
546;DHT22;259;53.304;9.816;2023-07-09T04:44:04;23.30;78.80
546;DHT22;259;53.304;9.816;2023-07-09T04:46:30;23.30;78.80
546;DHT22;259;53.304;9.816;2023-07-09T04:48:56;23.30;78.80
546;DHT22;259;53.304;9.816;2023-07-09T04:51:21;23.30;78.80
546;DHT22;259;53.304;9.816;2023-07-09T04:53:47;23.20;78.90
546;DHT22;259;53.304;9.816;2023-07-09T04:56:17;23.20;78.80
546;DHT22;259;53.304;9.816;2023-07-09T04:58:43;23.20;78.90
546;DHT22;259;53.304;9.816;2023-07-09T05:01:09;23.20;79.00
546;DHT22;259;53.304;9.816;2023-07-09T05:03:35;23.20;78.90
546;DHT22;259;53.304;9.816;2023-07-09T05:06:00;23.20;78.90
546;DHT22;259;53.304;9.816;2023-07-09T05:08:26;23.20;79.10
546;DHT22;259;53.304;9.816;2023-07-09T05:10:52;23.10;78.80
546;DHT22;259;53.304;9.816;2023-07-09T05:13:18;23.10;79.00
546;DHT22;259;53.304;9.816;2023-07-09T05:15:45;23.10;79.00
546;DHT22;259;53.304;9.816;2023-07-09T05:18:13;23.10;79.00
546;DHT22;259;53.304;9.816;2023-07-09T05:20:39;23.10;79.20
546;DHT22;259;53.304;9.816;2023-07-09T05:23:07;23.00;78.90
546;DHT22;259;53.304;9.816;2023-07-09T05:25:34;23.00;78.90
546;DHT22;259;53.304;9.816;2023-07-09T05:27:59;23.00;79.00
546;DHT22;259;53.304;9.816;2023-07-09T05:30:25;23.00;78.90
546;DHT22;259;53.304;9.816;2023-07-09T05:32:51;23.00;78.90
546;DHT22;259;53.304;9.816;2023-07-09T05:35:19;23.00;78.90
546;DHT22;259;53.304;9.816;2023-07-09T05:37:45;23.00;78.90
546;DHT22;259;53.304;9.816;2023-07-09T05:40:11;23.00;78.80
546;DHT22;259;53.304;9.816;2023-07-09T05:42:37;23.00;78.90
546;DHT22;259;53.304;9.816;2023-07-09T05:45:03;23.00;78.80
546;DHT22;259;53.304;9.816;2023-07-09T05:47:29;23.00;78.80
546;DHT22;259;53.304;9.816;2023-07-09T05:49:55;23.00;78.90
546;DHT22;259;53.304;9.816;2023-07-09T05:52:22;23.00;78.90
546;DHT22;259;53.304;9.816;2023-07-09T05:54:50;23.00;79.00
546;DHT22;259;53.304;9.816;2023-07-09T05:57:17;23.00;79.00
546;DHT22;259;53.304;9.816;2023-07-09T05:59:43;23.00;79.00
546;DHT22;259;53.304;9.816;2023-07-09T06:02:14;22.90;79.20
546;DHT22;259;53.304;9.816;2023-07-09T06:04:41;22.90;79.00
546;DHT22;259;53.304;9.816;2023-07-09T06:07:07;22.90;78.90
546;DHT22;259;53.304;9.816;2023-07-09T06:09:34;22.90;79.10
546;DHT22;259;53.304;9.816;2023-07-09T06:12:02;22.90;79.10
546;DHT22;259;53.304;9.816;2023-07-09T06:14:30;22.90;79.20
546;DHT22;259;53.304;9.816;2023-07-09T06:16:55;22.90;79.10
546;DHT22;259;53.304;9.816;2023-07-09T06:19:21;22.90;79.10
546;DHT22;259;53.304;9.816;2023-07-09T06:21:47;22.90;79.40
546;DHT22;259;53.304;9.816;2023-07-09T06:24:13;22.90;79.30
546;DHT22;259;53.304;9.816;2023-07-09T06:26:38;22.80;79.30
546;DHT22;259;53.304;9.816;2023-07-09T06:29:05;22.80;79.30
546;DHT22;259;53.304;9.816;2023-07-09T06:31:31;22.80;79.40
546;DHT22;259;53.304;9.816;2023-07-09T06:33:57;22.80;79.30
546;DHT22;259;53.304;9.816;2023-07-09T06:36:22;22.80;79.50
546;DHT22;259;53.304;9.816;2023-07-09T06:38:48;22.80;79.50
546;DHT22;259;53.304;9.816;2023-07-09T06:41:15;22.80;79.60
546;DHT22;259;53.304;9.816;2023-07-09T06:43:41;22.80;79.90
546;DHT22;259;53.304;9.816;2023-07-09T06:46:10;22.80;80.70
546;DHT22;259;53.304;9.816;2023-07-09T06:48:36;22.70;81.00
546;DHT22;259;53.304;9.816;2023-07-09T06:51:02;22.70;81.10
546;DHT22;259;53.304;9.816;2023-07-09T06:53:28;22.70;81.30
546;DHT22;259;53.304;9.816;2023-07-09T06:55:54;22.70;81.50
546;DHT22;259;53.304;9.816;2023-07-09T06:58:24;22.70;81.90
546;DHT22;259;53.304;9.816;2023-07-09T07:00:53;22.70;82.60
546;DHT22;259;53.304;9.816;2023-07-09T07:03:21;22.60;82.60
546;DHT22;259;53.304;9.816;2023-07-09T07:05:49;22.60;83.00
546;DHT22;259;53.304;9.816;2023-07-09T07:08:20;22.60;82.90
546;DHT22;259;53.304;9.816;2023-07-09T07:10:48;22.60;83.20
546;DHT22;259;53.304;9.816;2023-07-09T07:13:15;22.60;83.40
546;DHT22;259;53.304;9.816;2023-07-09T07:15:41;22.60;83.60
546;DHT22;259;53.304;9.816;2023-07-09T07:18:09;22.60;83.80
546;DHT22;259;53.304;9.816;2023-07-09T07:20:34;22.60;84.20
546;DHT22;259;53.304;9.816;2023-07-09T07:23:00;22.60;84.30
546;DHT22;259;53.304;9.816;2023-07-09T07:25:26;22.60;85.20
546;DHT22;259;53.304;9.816;2023-07-09T07:27:52;22.60;84.80
546;DHT22;259;53.304;9.816;2023-07-09T07:30:19;22.70;87.50
546;DHT22;259;53.304;9.816;2023-07-09T07:32:46;22.70;87.70
546;DHT22;259;53.304;9.816;2023-07-09T07:35:13;22.70;87.30
546;DHT22;259;53.304;9.816;2023-07-09T07:37:42;22.70;87.30
546;DHT22;259;53.304;9.816;2023-07-09T07:40:09;22.70;87.30
546;DHT22;259;53.304;9.816;2023-07-09T07:42:35;22.70;87.10
546;DHT22;259;53.304;9.816;2023-07-09T07:45:01;22.80;87.50
546;DHT22;259;53.304;9.816;2023-07-09T07:47:27;22.80;87.30
546;DHT22;259;53.304;9.816;2023-07-09T07:49:53;22.80;87.10
546;DHT22;259;53.304;9.816;2023-07-09T07:52:20;22.80;86.80
546;DHT22;259;53.304;9.816;2023-07-09T07:54:46;22.80;86.60
546;DHT22;259;53.304;9.816;2023-07-09T07:57:11;22.90;86.40
546;DHT22;259;53.304;9.816;2023-07-09T07:59:39;22.90;86.50
546;DHT22;259;53.304;9.816;2023-07-09T08:02:08;22.90;86.30
546;DHT22;259;53.304;9.816;2023-07-09T08:04:36;22.90;86.30
546;DHT22;259;53.304;9.816;2023-07-09T08:07:02;22.90;86.30
546;DHT22;259;53.304;9.816;2023-07-09T08:09:28;22.90;86.00
546;DHT22;259;53.304;9.816;2023-07-09T08:11:54;22.90;85.90
546;DHT22;259;53.304;9.816;2023-07-09T08:14:20;22.90;85.70
546;DHT22;259;53.304;9.816;2023-07-09T08:16:46;22.90;85.50
546;DHT22;259;53.304;9.816;2023-07-09T08:19:13;22.90;85.60
546;DHT22;259;53.304;9.816;2023-07-09T08:21:39;22.90;86.20
546;DHT22;259;53.304;9.816;2023-07-09T08:24:05;22.90;86.60
546;DHT22;259;53.304;9.816;2023-07-09T08:26:30;23.00;87.00
546;DHT22;259;53.304;9.816;2023-07-09T08:28:57;23.00;87.40
546;DHT22;259;53.304;9.816;2023-07-09T08:31:24;23.00;88.60
546;DHT22;259;53.304;9.816;2023-07-09T08:33:50;23.00;89.80
546;DHT22;259;53.304;9.816;2023-07-09T08:36:15;23.00;89.90
546;DHT22;259;53.304;9.816;2023-07-09T08:38:41;23.10;90.10
546;DHT22;259;53.304;9.816;2023-07-09T08:41:16;23.10;90.20
546;DHT22;259;53.304;9.816;2023-07-09T08:44:17;23.10;90.40
546;DHT22;259;53.304;9.816;2023-07-09T08:47:07;23.20;90.30
546;DHT22;259;53.304;9.816;2023-07-09T08:49:46;23.20;90.30
546;DHT22;259;53.304;9.816;2023-07-09T08:52:31;23.20;89.80
546;DHT22;259;53.304;9.816;2023-07-09T08:55:13;23.20;90.20
546;DHT22;259;53.304;9.816;2023-07-09T08:57:44;23.30;91.10
546;DHT22;259;53.304;9.816;2023-07-09T09:03:16;23.30;90.80
546;DHT22;259;53.304;9.816;2023-07-09T09:05:55;23.30;91.00
546;DHT22;259;53.304;9.816;2023-07-09T09:08:38;23.40;91.20
546;DHT22;259;53.304;9.816;2023-07-09T09:14:38;23.40;90.90
546;DHT22;259;53.304;9.816;2023-07-09T09:17:20;23.50;91.10
546;DHT22;259;53.304;9.816;2023-07-09T09:20:04;23.50;91.30
546;DHT22;259;53.304;9.816;2023-07-09T09:25:30;23.60;91.30
546;DHT22;259;53.304;9.816;2023-07-09T09:28:01;23.60;91.40
546;DHT22;259;53.304;9.816;2023-07-09T09:30:29;23.70;91.30
546;DHT22;259;53.304;9.816;2023-07-09T09:33:00;23.70;91.20
546;DHT22;259;53.304;9.816;2023-07-09T09:35:33;23.80;91.20
546;DHT22;259;53.304;9.816;2023-07-09T09:38:01;23.80;91.10
546;DHT22;259;53.304;9.816;2023-07-09T09:40:32;23.80;90.80
546;DHT22;259;53.304;9.816;2023-07-09T09:42:59;23.90;90.80
546;DHT22;259;53.304;9.816;2023-07-09T09:45:33;23.90;90.80
546;DHT22;259;53.304;9.816;2023-07-09T09:48:02;24.00;91.10
546;DHT22;259;53.304;9.816;2023-07-09T09:50:46;24.10;91.00
546;DHT22;259;53.304;9.816;2023-07-09T09:53:19;24.10;90.90
546;DHT22;259;53.304;9.816;2023-07-09T09:55:47;24.10;91.20
546;DHT22;259;53.304;9.816;2023-07-09T09:58:16;24.10;91.30
546;DHT22;259;53.304;9.816;2023-07-09T10:00:51;24.20;91.60
546;DHT22;259;53.304;9.816;2023-07-09T10:03:18;24.20;91.80
546;DHT22;259;53.304;9.816;2023-07-09T10:05:52;24.20;91.60
546;DHT22;259;53.304;9.816;2023-07-09T10:13:47;24.10;91.00
546;DHT22;259;53.304;9.816;2023-07-09T10:16:25;24.10;90.80
546;DHT22;259;53.304;9.816;2023-07-09T10:19:06;24.10;90.70
546;DHT22;259;53.304;9.816;2023-07-09T10:21:58;24.10;90.60
546;DHT22;259;53.304;9.816;2023-07-09T10:24:51;24.10;90.50
546;DHT22;259;53.304;9.816;2023-07-09T10:27:35;24.10;90.40
546;DHT22;259;53.304;9.816;2023-07-09T10:33:18;24.10;90.20
546;DHT22;259;53.304;9.816;2023-07-09T10:36:20;24.10;90.10
546;DHT22;259;53.304;9.816;2023-07-09T10:41:31;24.20;90.00
546;DHT22;259;53.304;9.816;2023-07-09T10:44:16;24.10;89.80
546;DHT22;259;53.304;9.816;2023-07-09T10:46:49;24.20;89.70
546;DHT22;259;53.304;9.816;2023-07-09T10:49:19;24.20;89.70
546;DHT22;259;53.304;9.816;2023-07-09T10:51:53;24.20;89.50
546;DHT22;259;53.304;9.816;2023-07-09T10:57:46;24.20;89.40
546;DHT22;259;53.304;9.816;2023-07-09T11:00:23;24.20;89.10
546;DHT22;259;53.304;9.816;2023-07-09T11:03:00;24.20;89.20
546;DHT22;259;53.304;9.816;2023-07-09T11:05:29;24.20;89.10
546;DHT22;259;53.304;9.816;2023-07-09T11:10:36;24.30;89.10
546;DHT22;259;53.304;9.816;2023-07-09T11:13:14;24.30;89.00
546;DHT22;259;53.304;9.816;2023-07-09T11:15:46;24.40;89.10
546;DHT22;259;53.304;9.816;2023-07-09T11:18:24;24.40;89.30
546;DHT22;259;53.304;9.816;2023-07-09T11:21:05;24.40;89.10
546;DHT22;259;53.304;9.816;2023-07-09T11:23:51;24.40;88.90
546;DHT22;259;53.304;9.816;2023-07-09T11:26:28;24.40;88.80
546;DHT22;259;53.304;9.816;2023-07-09T11:31:36;24.50;88.80
546;DHT22;259;53.304;9.816;2023-07-09T11:36:33;24.50;89.40
546;DHT22;259;53.304;9.816;2023-07-09T11:39:00;24.60;88.50
546;DHT22;259;53.304;9.816;2023-07-09T11:41:44;24.70;88.60
546;DHT22;259;53.304;9.816;2023-07-09T11:50:01;24.70;88.20
546;DHT22;259;53.304;9.816;2023-07-09T11:52:39;24.70;88.30
546;DHT22;259;53.304;9.816;2023-07-09T11:58:01;24.80;88.60
546;DHT22;259;53.304;9.816;2023-07-09T12:00:36;24.80;88.30
546;DHT22;259;53.304;9.816;2023-07-09T12:03:06;24.80;88.30
546;DHT22;259;53.304;9.816;2023-07-09T12:05:33;24.80;88.60
546;DHT22;259;53.304;9.816;2023-07-09T12:07:59;24.90;88.50
546;DHT22;259;53.304;9.816;2023-07-09T12:10:28;24.90;88.60
546;DHT22;259;53.304;9.816;2023-07-09T12:13:00;24.90;88.80
546;DHT22;259;53.304;9.816;2023-07-09T12:15:28;25.00;88.90
546;DHT22;259;53.304;9.816;2023-07-09T12:20:21;25.00;88.10
546;DHT22;259;53.304;9.816;2023-07-09T12:22:47;25.00;88.30
546;DHT22;259;53.304;9.816;2023-07-09T12:25:27;25.10;88.10
546;DHT22;259;53.304;9.816;2023-07-09T12:27:58;25.10;87.70
546;DHT22;259;53.304;9.816;2023-07-09T12:30:24;25.20;87.60
546;DHT22;259;53.304;9.816;2023-07-09T12:32:51;25.20;87.70
546;DHT22;259;53.304;9.816;2023-07-09T12:35:20;25.30;87.30
546;DHT22;259;53.304;9.816;2023-07-09T12:37:47;25.30;87.20
546;DHT22;259;53.304;9.816;2023-07-09T12:40:20;25.30;87.00
546;DHT22;259;53.304;9.816;2023-07-09T12:42:47;25.40;86.90
546;DHT22;259;53.304;9.816;2023-07-09T12:45:19;25.40;87.00
546;DHT22;259;53.304;9.816;2023-07-09T12:47:46;25.40;87.20
546;DHT22;259;53.304;9.816;2023-07-09T12:50:35;25.50;87.40
546;DHT22;259;53.304;9.816;2023-07-09T12:53:09;25.50;87.10
546;DHT22;259;53.304;9.816;2023-07-09T12:55:40;25.50;87.40
546;DHT22;259;53.304;9.816;2023-07-09T12:58:19;25.60;87.30
546;DHT22;259;53.304;9.816;2023-07-09T13:01:00;25.60;87.30
546;DHT22;259;53.304;9.816;2023-07-09T13:03:33;25.70;87.10
546;DHT22;259;53.304;9.816;2023-07-09T13:06:06;25.70;86.90
546;DHT22;259;53.304;9.816;2023-07-09T13:08:58;25.80;86.60
546;DHT22;259;53.304;9.816;2023-07-09T13:11:25;25.80;86.70
546;DHT22;259;53.304;9.816;2023-07-09T13:14:01;25.80;86.40
546;DHT22;259;53.304;9.816;2023-07-09T13:16:28;25.90;86.10
546;DHT22;259;53.304;9.816;2023-07-09T13:18:55;25.90;86.10
546;DHT22;259;53.304;9.816;2023-07-09T13:21:21;25.90;85.90
546;DHT22;259;53.304;9.816;2023-07-09T13:23:48;26.00;85.60
546;DHT22;259;53.304;9.816;2023-07-09T13:26:15;26.00;85.60
546;DHT22;259;53.304;9.816;2023-07-09T13:28:42;26.10;85.60
546;DHT22;259;53.304;9.816;2023-07-09T13:31:13;26.10;85.50
546;DHT22;259;53.304;9.816;2023-07-09T13:33:44;26.10;85.40
546;DHT22;259;53.304;9.816;2023-07-09T13:36:16;26.10;85.40
546;DHT22;259;53.304;9.816;2023-07-09T13:38:41;26.20;85.30
546;DHT22;259;53.304;9.816;2023-07-09T13:41:13;26.20;84.90
546;DHT22;259;53.304;9.816;2023-07-09T13:43:46;26.30;85.40
546;DHT22;259;53.304;9.816;2023-07-09T13:46:13;26.30;85.10
546;DHT22;259;53.304;9.816;2023-07-09T13:48:40;26.30;84.80
546;DHT22;259;53.304;9.816;2023-07-09T13:51:22;26.30;84.60
546;DHT22;259;53.304;9.816;2023-07-09T13:53:50;26.40;84.50
546;DHT22;259;53.304;9.816;2023-07-09T13:56:19;26.40;84.70
546;DHT22;259;53.304;9.816;2023-07-09T13:58:45;26.40;85.10
546;DHT22;259;53.304;9.816;2023-07-09T14:01:23;26.50;85.00
546;DHT22;259;53.304;9.816;2023-07-09T14:03:49;26.50;84.90
546;DHT22;259;53.304;9.816;2023-07-09T14:06:17;26.50;84.80
546;DHT22;259;53.304;9.816;2023-07-09T14:08:43;26.60;84.50
546;DHT22;259;53.304;9.816;2023-07-09T14:11:13;26.60;84.60
546;DHT22;259;53.304;9.816;2023-07-09T14:13:40;26.70;84.50
546;DHT22;259;53.304;9.816;2023-07-09T14:16:08;26.70;84.50
546;DHT22;259;53.304;9.816;2023-07-09T14:18:35;26.80;84.40
546;DHT22;259;53.304;9.816;2023-07-09T14:21:13;26.80;84.30
546;DHT22;259;53.304;9.816;2023-07-09T14:23:40;26.80;84.20
546;DHT22;259;53.304;9.816;2023-07-09T14:26:08;26.90;84.30
546;DHT22;259;53.304;9.816;2023-07-09T14:28:35;26.90;84.30
546;DHT22;259;53.304;9.816;2023-07-09T14:31:04;26.90;84.20
546;DHT22;259;53.304;9.816;2023-07-09T14:33:33;27.00;84.00
546;DHT22;259;53.304;9.816;2023-07-09T14:36:00;27.00;83.90
546;DHT22;259;53.304;9.816;2023-07-09T14:38:26;27.10;83.70
546;DHT22;259;53.304;9.816;2023-07-09T14:40:54;27.10;83.90
546;DHT22;259;53.304;9.816;2023-07-09T14:43:21;27.10;83.80
546;DHT22;259;53.304;9.816;2023-07-09T14:45:48;27.20;83.90
546;DHT22;259;53.304;9.816;2023-07-09T14:48:19;27.20;83.50
546;DHT22;259;53.304;9.816;2023-07-09T14:50:46;27.30;83.90
546;DHT22;259;53.304;9.816;2023-07-09T14:55:46;27.40;83.60
546;DHT22;259;53.304;9.816;2023-07-09T14:58:17;27.40;83.70
546;DHT22;259;53.304;9.816;2023-07-09T15:00:46;27.40;83.30
546;DHT22;259;53.304;9.816;2023-07-09T15:03:23;27.50;83.40
546;DHT22;259;53.304;9.816;2023-07-09T15:05:50;27.50;83.30
546;DHT22;259;53.304;9.816;2023-07-09T15:08:21;27.50;83.10
546;DHT22;259;53.304;9.816;2023-07-09T15:10:50;27.50;83.20
546;DHT22;259;53.304;9.816;2023-07-09T15:15:50;27.50;83.30
546;DHT22;259;53.304;9.816;2023-07-09T15:18:16;27.60;83.20
546;DHT22;259;53.304;9.816;2023-07-09T15:20:51;27.60;83.10
546;DHT22;259;53.304;9.816;2023-07-09T15:23:19;27.60;83.20
546;DHT22;259;53.304;9.816;2023-07-09T15:25:47;27.60;83.20
546;DHT22;259;53.304;9.816;2023-07-09T15:28:13;27.60;83.30
546;DHT22;259;53.304;9.816;2023-07-09T15:30:39;27.60;83.00
546;DHT22;259;53.304;9.816;2023-07-09T15:33:13;27.60;83.10
546;DHT22;259;53.304;9.816;2023-07-09T15:35:41;27.60;83.30
546;DHT22;259;53.304;9.816;2023-07-09T15:40:43;27.70;83.30
546;DHT22;259;53.304;9.816;2023-07-09T15:43:09;27.70;83.20
546;DHT22;259;53.304;9.816;2023-07-09T15:45:39;27.60;83.30
546;DHT22;259;53.304;9.816;2023-07-09T15:50:51;27.60;83.50
546;DHT22;259;53.304;9.816;2023-07-09T15:53:17;27.60;83.80
546;DHT22;259;53.304;9.816;2023-07-09T15:55:43;27.60;83.60
546;DHT22;259;53.304;9.816;2023-07-09T15:58:25;27.60;83.70
546;DHT22;259;53.304;9.816;2023-07-09T16:00:52;27.60;83.90
546;DHT22;259;53.304;9.816;2023-07-09T16:03:18;27.60;84.20
546;DHT22;259;53.304;9.816;2023-07-09T16:05:44;27.60;84.20
546;DHT22;259;53.304;9.816;2023-07-09T16:08:11;27.60;84.30
546;DHT22;259;53.304;9.816;2023-07-09T16:10:37;27.60;84.20
546;DHT22;259;53.304;9.816;2023-07-09T16:13:02;27.50;84.20
546;DHT22;259;53.304;9.816;2023-07-09T16:15:28;27.60;84.30
546;DHT22;259;53.304;9.816;2023-07-09T16:17:54;27.50;84.40
546;DHT22;259;53.304;9.816;2023-07-09T16:20:25;27.50;84.40
546;DHT22;259;53.304;9.816;2023-07-09T16:22:55;27.60;84.60
546;DHT22;259;53.304;9.816;2023-07-09T16:25:48;27.60;84.50
546;DHT22;259;53.304;9.816;2023-07-09T16:28:16;27.60;84.50
546;DHT22;259;53.304;9.816;2023-07-09T16:30:45;27.50;84.70
546;DHT22;259;53.304;9.816;2023-07-09T16:33:12;27.50;84.70
546;DHT22;259;53.304;9.816;2023-07-09T16:35:39;27.50;84.80
546;DHT22;259;53.304;9.816;2023-07-09T16:38:05;27.50;84.80
546;DHT22;259;53.304;9.816;2023-07-09T16:40:31;27.50;84.90
546;DHT22;259;53.304;9.816;2023-07-09T16:42:59;27.50;84.90
546;DHT22;259;53.304;9.816;2023-07-09T16:45:28;27.50;85.70
546;DHT22;259;53.304;9.816;2023-07-09T16:47:54;27.50;85.00
546;DHT22;259;53.304;9.816;2023-07-09T16:50:24;27.50;85.00
546;DHT22;259;53.304;9.816;2023-07-09T16:52:51;27.50;85.00
546;DHT22;259;53.304;9.816;2023-07-09T16:55:21;27.50;85.10
546;DHT22;259;53.304;9.816;2023-07-09T16:57:54;27.50;85.10
546;DHT22;259;53.304;9.816;2023-07-09T17:02:54;27.50;85.20
546;DHT22;259;53.304;9.816;2023-07-09T17:05:23;27.50;85.10
546;DHT22;259;53.304;9.816;2023-07-09T17:07:50;27.50;85.10
546;DHT22;259;53.304;9.816;2023-07-09T17:10:16;27.50;85.20
546;DHT22;259;53.304;9.816;2023-07-09T17:12:43;27.50;85.30
546;DHT22;259;53.304;9.816;2023-07-09T17:15:22;27.40;85.10
546;DHT22;259;53.304;9.816;2023-07-09T17:17:50;27.50;85.20
546;DHT22;259;53.304;9.816;2023-07-09T17:20:17;27.50;85.30
546;DHT22;259;53.304;9.816;2023-07-09T17:22:43;27.40;85.20
546;DHT22;259;53.304;9.816;2023-07-09T17:25:36;27.50;85.30
546;DHT22;259;53.304;9.816;2023-07-09T17:28:13;27.40;85.30
546;DHT22;259;53.304;9.816;2023-07-09T17:30:43;27.40;85.30
546;DHT22;259;53.304;9.816;2023-07-09T17:33:10;27.40;85.60
546;DHT22;259;53.304;9.816;2023-07-09T17:35:39;27.40;85.60
546;DHT22;259;53.304;9.816;2023-07-09T17:38:05;27.40;85.70
546;DHT22;259;53.304;9.816;2023-07-09T17:40:34;27.40;85.60
546;DHT22;259;53.304;9.816;2023-07-09T17:43:01;27.40;85.60
546;DHT22;259;53.304;9.816;2023-07-09T17:45:27;27.40;85.50
546;DHT22;259;53.304;9.816;2023-07-09T17:47:54;27.40;85.40